sensor_id;sensor_type;location;lat;lon;timestamp;P1;durP1;ratioP1;P2;durP2;ratioP2
19842;SDS011;10082;51.038;6.992;2024-02-23T00:00:53;0.68;;;0.40;;
19842;SDS011;10082;51.038;6.992;2024-02-23T00:03:20;1.65;;;0.60;;
19842;SDS011;10082;51.038;6.992;2024-02-23T00:05:47;1.50;;;0.50;;
19842;SDS011;10082;51.038;6.992;2024-02-23T00:08:14;1.08;;;0.60;;
19842;SDS011;10082;51.038;6.992;2024-02-23T00:10:43;0.95;;;0.55;;
19842;SDS011;10082;51.038;6.992;2024-02-23T00:13:10;0.60;;;0.50;;
19842;SDS011;10082;51.038;6.992;2024-02-23T00:15:37;2.10;;;0.50;;
19842;SDS011;10082;51.038;6.992;2024-02-23T00:18:04;1.05;;;0.50;;
19842;SDS011;10082;51.038;6.992;2024-02-23T00:20:31;0.40;;;0.40;;
19842;SDS011;10082;51.038;6.992;2024-02-23T00:23:04;1.95;;;0.57;;
19842;SDS011;10082;51.038;6.992;2024-02-23T00:25:31;2.15;;;0.50;;
19842;SDS011;10082;51.038;6.992;2024-02-23T00:28:00;0.50;;;0.50;;
19842;SDS011;10082;51.038;6.992;2024-02-23T00:30:27;0.82;;;0.60;;
19842;SDS011;10082;51.038;6.992;2024-02-23T00:32:54;0.43;;;0.32;;
19842;SDS011;10082;51.038;6.992;2024-02-23T00:35:21;0.93;;;0.50;;
19842;SDS011;10082;51.038;6.992;2024-02-23T00:37:47;0.50;;;0.50;;
19842;SDS011;10082;51.038;6.992;2024-02-23T00:40:14;0.52;;;0.50;;
19842;SDS011;10082;51.038;6.992;2024-02-23T00:42:42;0.52;;;0.40;;
19842;SDS011;10082;51.038;6.992;2024-02-23T00:45:13;1.02;;;0.68;;
19842;SDS011;10082;51.038;6.992;2024-02-23T00:47:40;0.77;;;0.50;;
19842;SDS011;10082;51.038;6.992;2024-02-23T00:50:09;0.85;;;0.50;;
19842;SDS011;10082;51.038;6.992;2024-02-23T00:52:37;1.85;;;0.68;;
19842;SDS011;10082;51.038;6.992;2024-02-23T00:55:04;0.90;;;0.57;;
19842;SDS011;10082;51.038;6.992;2024-02-23T00:57:33;1.17;;;0.60;;
19842;SDS011;10082;51.038;6.992;2024-02-23T01:00:00;0.73;;;0.55;;
19842;SDS011;10082;51.038;6.992;2024-02-23T01:02:34;1.55;;;0.70;;
19842;SDS011;10082;51.038;6.992;2024-02-23T01:05:03;1.40;;;0.68;;
19842;SDS011;10082;51.038;6.992;2024-02-23T01:07:32;1.23;;;0.70;;
19842;SDS011;10082;51.038;6.992;2024-02-23T01:09:59;1.85;;;0.80;;
19842;SDS011;10082;51.038;6.992;2024-02-23T01:12:26;0.88;;;0.60;;
19842;SDS011;10082;51.038;6.992;2024-02-23T01:14:53;1.25;;;0.70;;
19842;SDS011;10082;51.038;6.992;2024-02-23T01:17:20;1.08;;;0.50;;
19842;SDS011;10082;51.038;6.992;2024-02-23T01:19:49;2.78;;;0.65;;
19842;SDS011;10082;51.038;6.992;2024-02-23T01:22:17;0.95;;;0.50;;
19842;SDS011;10082;51.038;6.992;2024-02-23T01:24:44;1.48;;;0.77;;
19842;SDS011;10082;51.038;6.992;2024-02-23T01:27:11;3.28;;;0.80;;
19842;SDS011;10082;51.038;6.992;2024-02-23T01:29:39;1.35;;;0.63;;
19842;SDS011;10082;51.038;6.992;2024-02-23T01:32:06;1.50;;;0.80;;
19842;SDS011;10082;51.038;6.992;2024-02-23T01:34:33;1.00;;;0.52;;
19842;SDS011;10082;51.038;6.992;2024-02-23T01:37:02;1.17;;;0.70;;
19842;SDS011;10082;51.038;6.992;2024-02-23T01:39:29;2.47;;;0.90;;
19842;SDS011;10082;51.038;6.992;2024-02-23T01:41:57;1.52;;;0.60;;
19842;SDS011;10082;51.038;6.992;2024-02-23T01:44:24;1.83;;;0.73;;
19842;SDS011;10082;51.038;6.992;2024-02-23T01:46:51;1.00;;;0.60;;
19842;SDS011;10082;51.038;6.992;2024-02-23T01:49:18;0.45;;;0.40;;
19842;SDS011;10082;51.038;6.992;2024-02-23T01:51:46;0.73;;;0.60;;
19842;SDS011;10082;51.038;6.992;2024-02-23T01:54:14;0.70;;;0.70;;
19842;SDS011;10082;51.038;6.992;2024-02-23T01:56:42;0.95;;;0.50;;
19842;SDS011;10082;51.038;6.992;2024-02-23T01:59:09;1.35;;;0.47;;
19842;SDS011;10082;51.038;6.992;2024-02-23T02:01:38;1.40;;;0.73;;
19842;SDS011;10082;51.038;6.992;2024-02-23T02:04:05;1.33;;;0.68;;
19842;SDS011;10082;51.038;6.992;2024-02-23T02:06:32;0.85;;;0.50;;
19842;SDS011;10082;51.038;6.992;2024-02-23T02:09:00;1.85;;;0.70;;
19842;SDS011;10082;51.038;6.992;2024-02-23T02:11:29;1.48;;;0.70;;
19842;SDS011;10082;51.038;6.992;2024-02-23T02:13:56;1.10;;;0.70;;
19842;SDS011;10082;51.038;6.992;2024-02-23T02:16:22;2.00;;;0.60;;
19842;SDS011;10082;51.038;6.992;2024-02-23T02:18:50;1.47;;;0.60;;
19842;SDS011;10082;51.038;6.992;2024-02-23T02:21:17;3.53;;;0.90;;
19842;SDS011;10082;51.038;6.992;2024-02-23T02:23:48;1.87;;;0.70;;
19842;SDS011;10082;51.038;6.992;2024-02-23T02:26:15;2.70;;;0.95;;
19842;SDS011;10082;51.038;6.992;2024-02-23T02:28:44;1.23;;;0.60;;
19842;SDS011;10082;51.038;6.992;2024-02-23T02:31:11;1.20;;;0.70;;
19842;SDS011;10082;51.038;6.992;2024-02-23T02:33:39;2.78;;;0.80;;
19842;SDS011;10082;51.038;6.992;2024-02-23T02:36:06;1.90;;;0.70;;
19842;SDS011;10082;51.038;6.992;2024-02-23T02:38:34;1.60;;;0.80;;
19842;SDS011;10082;51.038;6.992;2024-02-23T02:41:01;2.50;;;0.93;;
19842;SDS011;10082;51.038;6.992;2024-02-23T02:43:28;1.10;;;0.60;;
19842;SDS011;10082;51.038;6.992;2024-02-23T02:45:57;1.40;;;0.70;;
19842;SDS011;10082;51.038;6.992;2024-02-23T02:48:24;1.25;;;0.73;;
19842;SDS011;10082;51.038;6.992;2024-02-23T02:50:51;2.22;;;0.70;;
19842;SDS011;10082;51.038;6.992;2024-02-23T02:53:18;2.70;;;0.93;;
19842;SDS011;10082;51.038;6.992;2024-02-23T02:55:45;2.08;;;0.90;;
19842;SDS011;10082;51.038;6.992;2024-02-23T02:58:12;2.40;;;1.00;;
19842;SDS011;10082;51.038;6.992;2024-02-23T03:00:39;1.93;;;0.90;;
19842;SDS011;10082;51.038;6.992;2024-02-23T03:03:08;2.33;;;0.90;;
19842;SDS011;10082;51.038;6.992;2024-02-23T03:05:35;3.20;;;0.90;;
19842;SDS011;10082;51.038;6.992;2024-02-23T03:08:02;2.77;;;1.10;;
19842;SDS011;10082;51.038;6.992;2024-02-23T03:10:29;3.10;;;0.80;;
19842;SDS011;10082;51.038;6.992;2024-02-23T03:12:56;1.38;;;0.75;;
19842;SDS011;10082;51.038;6.992;2024-02-23T03:15:23;1.30;;;0.80;;
19842;SDS011;10082;51.038;6.992;2024-02-23T03:17:50;3.28;;;1.17;;
19842;SDS011;10082;51.038;6.992;2024-02-23T03:20:18;1.35;;;0.82;;
19842;SDS011;10082;51.038;6.992;2024-02-23T03:22:50;2.08;;;0.90;;
19842;SDS011;10082;51.038;6.992;2024-02-23T03:25:17;1.83;;;0.93;;
19842;SDS011;10082;51.038;6.992;2024-02-23T03:27:45;3.60;;;1.00;;
19842;SDS011;10082;51.038;6.992;2024-02-23T03:30:12;1.88;;;1.00;;
19842;SDS011;10082;51.038;6.992;2024-02-23T03:32:40;3.28;;;1.02;;
19842;SDS011;10082;51.038;6.992;2024-02-23T03:35:08;2.78;;;1.00;;
19842;SDS011;10082;51.038;6.992;2024-02-23T03:37:37;3.33;;;0.90;;
19842;SDS011;10082;51.038;6.992;2024-02-23T03:43:26;2.90;;;1.02;;
19842;SDS011;10082;51.038;6.992;2024-02-23T03:45:52;3.07;;;0.70;;
19842;SDS011;10082;51.038;6.992;2024-02-23T03:48:19;2.80;;;0.87;;
19842;SDS011;10082;51.038;6.992;2024-02-23T03:50:47;2.90;;;1.07;;
19842;SDS011;10082;51.038;6.992;2024-02-23T03:53:15;3.10;;;1.10;;
19842;SDS011;10082;51.038;6.992;2024-02-23T03:55:42;2.73;;;1.00;;
19842;SDS011;10082;51.038;6.992;2024-02-23T03:58:09;3.33;;;0.95;;
19842;SDS011;10082;51.038;6.992;2024-02-23T04:00:36;1.87;;;1.10;;
19842;SDS011;10082;51.038;6.992;2024-02-23T04:05:48;3.95;;;1.75;;
19842;SDS011;10082;51.038;6.992;2024-02-23T04:08:17;2.20;;;1.48;;
19842;SDS011;10082;51.038;6.992;2024-02-23T04:10:43;3.25;;;1.77;;
19842;SDS011;10082;51.038;6.992;2024-02-23T04:13:10;4.80;;;1.80;;
19842;SDS011;10082;51.038;6.992;2024-02-23T04:15:38;3.57;;;1.50;;
19842;SDS011;10082;51.038;6.992;2024-02-23T04:18:06;2.35;;;1.50;;
19842;SDS011;10082;51.038;6.992;2024-02-23T04:20:33;3.50;;;1.45;;
19842;SDS011;10082;51.038;6.992;2024-02-23T04:23:00;4.10;;;1.80;;
19842;SDS011;10082;51.038;6.992;2024-02-23T04:25:32;3.22;;;1.40;;
19842;SDS011;10082;51.038;6.992;2024-02-23T04:27:59;2.35;;;1.25;;
19842;SDS011;10082;51.038;6.992;2024-02-23T04:30:26;1.85;;;1.00;;
19842;SDS011;10082;51.038;6.992;2024-02-23T04:32:53;2.20;;;1.17;;
19842;SDS011;10082;51.038;6.992;2024-02-23T04:35:20;2.65;;;0.82;;
19842;SDS011;10082;51.038;6.992;2024-02-23T04:37:47;2.72;;;1.33;;
19842;SDS011;10082;51.038;6.992;2024-02-23T04:40:15;1.50;;;0.70;;
19842;SDS011;10082;51.038;6.992;2024-02-23T04:42:44;1.95;;;1.00;;
19842;SDS011;10082;51.038;6.992;2024-02-23T04:45:12;2.40;;;0.93;;
19842;SDS011;10082;51.038;6.992;2024-02-23T04:47:40;1.92;;;0.75;;
19842;SDS011;10082;51.038;6.992;2024-02-23T04:50:08;2.70;;;0.85;;
19842;SDS011;10082;51.038;6.992;2024-02-23T04:52:35;1.35;;;0.80;;
19842;SDS011;10082;51.038;6.992;2024-02-23T04:55:02;2.13;;;0.83;;
19842;SDS011;10082;51.038;6.992;2024-02-23T04:57:30;1.55;;;0.80;;
19842;SDS011;10082;51.038;6.992;2024-02-23T04:59:59;1.13;;;0.70;;
19842;SDS011;10082;51.038;6.992;2024-02-23T05:02:27;2.70;;;0.80;;
19842;SDS011;10082;51.038;6.992;2024-02-23T05:05:00;2.13;;;0.90;;
19842;SDS011;10082;51.038;6.992;2024-02-23T05:07:27;2.03;;;0.93;;
19842;SDS011;10082;51.038;6.992;2024-02-23T05:09:54;1.77;;;0.82;;
19842;SDS011;10082;51.038;6.992;2024-02-23T05:12:20;3.08;;;1.00;;
19842;SDS011;10082;51.038;6.992;2024-02-23T05:14:48;1.23;;;0.60;;
19842;SDS011;10082;51.038;6.992;2024-02-23T05:17:16;3.55;;;1.17;;
19842;SDS011;10082;51.038;6.992;2024-02-23T05:19:43;2.75;;;0.88;;
19842;SDS011;10082;51.038;6.992;2024-02-23T05:22:11;2.05;;;0.98;;
19842;SDS011;10082;51.038;6.992;2024-02-23T05:24:38;1.83;;;0.80;;
19842;SDS011;10082;51.038;6.992;2024-02-23T05:27:05;2.72;;;1.00;;
19842;SDS011;10082;51.038;6.992;2024-02-23T05:29:32;1.98;;;0.90;;
19842;SDS011;10082;51.038;6.992;2024-02-23T05:31:59;1.97;;;0.90;;
19842;SDS011;10082;51.038;6.992;2024-02-23T05:34:29;2.92;;;1.20;;
19842;SDS011;10082;51.038;6.992;2024-02-23T05:36:56;2.20;;;0.90;;
19842;SDS011;10082;51.038;6.992;2024-02-23T05:39:23;2.27;;;0.83;;
19842;SDS011;10082;51.038;6.992;2024-02-23T05:41:49;2.72;;;0.77;;
19842;SDS011;10082;51.038;6.992;2024-02-23T05:44:16;1.17;;;0.93;;
19842;SDS011;10082;51.038;6.992;2024-02-23T05:46:43;3.15;;;0.98;;
19842;SDS011;10082;51.038;6.992;2024-02-23T05:49:10;3.35;;;1.10;;
19842;SDS011;10082;51.038;6.992;2024-02-23T05:51:39;3.40;;;1.00;;
19842;SDS011;10082;51.038;6.992;2024-02-23T05:54:07;2.70;;;1.20;;
19842;SDS011;10082;51.038;6.992;2024-02-23T05:56:35;2.33;;;1.10;;
19842;SDS011;10082;51.038;6.992;2024-02-23T05:59:02;1.97;;;1.00;;
19842;SDS011;10082;51.038;6.992;2024-02-23T06:01:30;3.15;;;1.30;;
19842;SDS011;10082;51.038;6.992;2024-02-23T06:03:57;2.85;;;1.00;;
19842;SDS011;10082;51.038;6.992;2024-02-23T06:06:24;2.92;;;1.23;;
19842;SDS011;10082;51.038;6.992;2024-02-23T06:08:54;1.92;;;1.05;;
19842;SDS011;10082;51.038;6.992;2024-02-23T06:11:25;1.43;;;0.90;;
19842;SDS011;10082;51.038;6.992;2024-02-23T06:13:53;2.17;;;1.00;;
19842;SDS011;10082;51.038;6.992;2024-02-23T06:16:23;3.88;;;1.23;;
19842;SDS011;10082;51.038;6.992;2024-02-23T06:18:50;1.90;;;0.87;;
19842;SDS011;10082;51.038;6.992;2024-02-23T06:21:17;2.23;;;1.10;;
19842;SDS011;10082;51.038;6.992;2024-02-23T06:23:44;2.93;;;1.10;;
19842;SDS011;10082;51.038;6.992;2024-02-23T06:26:13;3.70;;;1.30;;
19842;SDS011;10082;51.038;6.992;2024-02-23T06:28:40;3.83;;;1.30;;
19842;SDS011;10082;51.038;6.992;2024-02-23T06:31:08;2.67;;;1.30;;
19842;SDS011;10082;51.038;6.992;2024-02-23T06:33:36;3.45;;;1.33;;
19842;SDS011;10082;51.038;6.992;2024-02-23T06:36:04;1.93;;;0.83;;
19842;SDS011;10082;51.038;6.992;2024-02-23T06:38:33;4.03;;;1.40;;
19842;SDS011;10082;51.038;6.992;2024-02-23T06:41:00;2.33;;;1.10;;
19842;SDS011;10082;51.038;6.992;2024-02-23T06:43:28;2.57;;;1.00;;
19842;SDS011;10082;51.038;6.992;2024-02-23T06:45:55;3.23;;;1.10;;
19842;SDS011;10082;51.038;6.992;2024-02-23T06:48:23;2.50;;;1.20;;
19842;SDS011;10082;51.038;6.992;2024-02-23T06:50:51;2.70;;;1.27;;
19842;SDS011;10082;51.038;6.992;2024-02-23T06:53:18;3.07;;;1.07;;
19842;SDS011;10082;51.038;6.992;2024-02-23T06:55:45;2.83;;;0.90;;
19842;SDS011;10082;51.038;6.992;2024-02-23T06:58:12;3.35;;;1.40;;
19842;SDS011;10082;51.038;6.992;2024-02-23T07:00:41;2.83;;;1.40;;
19842;SDS011;10082;51.038;6.992;2024-02-23T07:03:08;2.73;;;1.10;;
19842;SDS011;10082;51.038;6.992;2024-02-23T07:05:35;3.00;;;1.30;;
19842;SDS011;10082;51.038;6.992;2024-02-23T07:08:03;3.07;;;1.63;;
19842;SDS011;10082;51.038;6.992;2024-02-23T07:10:30;2.77;;;1.10;;
19842;SDS011;10082;51.038;6.992;2024-02-23T07:12:57;2.77;;;1.10;;
19842;SDS011;10082;51.038;6.992;2024-02-23T07:15:24;3.47;;;1.20;;
19842;SDS011;10082;51.038;6.992;2024-02-23T07:17:53;3.93;;;1.20;;
19842;SDS011;10082;51.038;6.992;2024-02-23T07:20:20;2.53;;;1.00;;
19842;SDS011;10082;51.038;6.992;2024-02-23T07:22:48;4.93;;;1.60;;
19842;SDS011;10082;51.038;6.992;2024-02-23T07:25:15;1.63;;;0.93;;
19842;SDS011;10082;51.038;6.992;2024-02-23T07:27:42;1.90;;;1.10;;
19842;SDS011;10082;51.038;6.992;2024-02-23T07:30:10;3.47;;;1.10;;
19842;SDS011;10082;51.038;6.992;2024-02-23T07:32:38;2.63;;;1.20;;
19842;SDS011;10082;51.038;6.992;2024-02-23T07:35:07;2.37;;;1.13;;
19842;SDS011;10082;51.038;6.992;2024-02-23T07:37:34;2.40;;;1.10;;
19842;SDS011;10082;51.038;6.992;2024-02-23T07:40:01;2.63;;;1.20;;
19842;SDS011;10082;51.038;6.992;2024-02-23T07:42:29;2.43;;;1.07;;
19842;SDS011;10082;51.038;6.992;2024-02-23T07:44:57;4.15;;;1.30;;
19842;SDS011;10082;51.038;6.992;2024-02-23T07:47:24;2.85;;;1.20;;
19842;SDS011;10082;51.038;6.992;2024-02-23T07:49:53;2.58;;;0.98;;
19842;SDS011;10082;51.038;6.992;2024-02-23T07:52:22;3.20;;;1.25;;
19842;SDS011;10082;51.038;6.992;2024-02-23T07:54:49;2.97;;;1.52;;
19842;SDS011;10082;51.038;6.992;2024-02-23T07:57:17;2.40;;;1.10;;
19842;SDS011;10082;51.038;6.992;2024-02-23T07:59:45;3.33;;;0.98;;
19842;SDS011;10082;51.038;6.992;2024-02-23T08:02:11;2.70;;;1.40;;
19842;SDS011;10082;51.038;6.992;2024-02-23T08:04:39;2.65;;;1.02;;
19842;SDS011;10082;51.038;6.992;2024-02-23T08:07:07;4.57;;;1.50;;
19842;SDS011;10082;51.038;6.992;2024-02-23T08:09:36;2.63;;;1.00;;
19842;SDS011;10082;51.038;6.992;2024-02-23T08:12:03;2.38;;;1.10;;
19842;SDS011;10082;51.038;6.992;2024-02-23T08:14:31;1.98;;;1.13;;
19842;SDS011;10082;51.038;6.992;2024-02-23T08:16:58;2.55;;;1.52;;
19842;SDS011;10082;51.038;6.992;2024-02-23T08:19:25;3.42;;;1.25;;
19842;SDS011;10082;51.038;6.992;2024-02-23T08:21:52;2.65;;;1.38;;
19842;SDS011;10082;51.038;6.992;2024-02-23T08:24:19;3.10;;;1.20;;
19842;SDS011;10082;51.038;6.992;2024-02-23T08:26:48;4.85;;;1.67;;
19842;SDS011;10082;51.038;6.992;2024-02-23T08:29:16;3.92;;;1.40;;
19842;SDS011;10082;51.038;6.992;2024-02-23T08:31:43;3.95;;;1.42;;
19842;SDS011;10082;51.038;6.992;2024-02-23T08:34:10;4.47;;;1.27;;
19842;SDS011;10082;51.038;6.992;2024-02-23T08:36:37;2.03;;;1.02;;
19842;SDS011;10082;51.038;6.992;2024-02-23T08:39:04;4.57;;;1.98;;
19842;SDS011;10082;51.038;6.992;2024-02-23T08:41:33;2.40;;;1.10;;
19842;SDS011;10082;51.038;6.992;2024-02-23T08:44:01;3.95;;;1.00;;
19842;SDS011;10082;51.038;6.992;2024-02-23T08:46:29;2.63;;;0.95;;
19842;SDS011;10082;51.038;6.992;2024-02-23T08:48:55;4.03;;;1.33;;
19842;SDS011;10082;51.038;6.992;2024-02-23T08:51:29;2.25;;;0.82;;
19842;SDS011;10082;51.038;6.992;2024-02-23T08:53:56;4.00;;;1.10;;
19842;SDS011;10082;51.038;6.992;2024-02-23T08:56:28;2.78;;;1.00;;
19842;SDS011;10082;51.038;6.992;2024-02-23T08:58:55;1.90;;;1.15;;
19842;SDS011;10082;51.038;6.992;2024-02-23T09:01:23;3.47;;;1.10;;
19842;SDS011;10082;51.038;6.992;2024-02-23T09:03:50;3.72;;;1.20;;
19842;SDS011;10082;51.038;6.992;2024-02-23T09:06:18;2.83;;;0.88;;
19842;SDS011;10082;51.038;6.992;2024-02-23T09:08:45;2.88;;;1.23;;
19842;SDS011;10082;51.038;6.992;2024-02-23T09:11:12;5.28;;;1.58;;
19842;SDS011;10082;51.038;6.992;2024-02-23T09:13:43;4.70;;;1.92;;
19842;SDS011;10082;51.038;6.992;2024-02-23T09:16:10;4.03;;;1.50;;
19842;SDS011;10082;51.038;6.992;2024-02-23T09:18:39;3.53;;;1.15;;
19842;SDS011;10082;51.038;6.992;2024-02-23T09:21:06;3.88;;;1.17;;
19842;SDS011;10082;51.038;6.992;2024-02-23T09:23:33;3.85;;;1.63;;
19842;SDS011;10082;51.038;6.992;2024-02-23T09:26:00;2.92;;;1.10;;
19842;SDS011;10082;51.038;6.992;2024-02-23T09:28:29;2.85;;;1.13;;
19842;SDS011;10082;51.038;6.992;2024-02-23T09:30:57;2.30;;;0.95;;
19842;SDS011;10082;51.038;6.992;2024-02-23T09:33:24;3.58;;;1.10;;
19842;SDS011;10082;51.038;6.992;2024-02-23T09:35:59;3.13;;;1.35;;
19842;SDS011;10082;51.038;6.992;2024-02-23T09:38:26;3.50;;;1.20;;
19842;SDS011;10082;51.038;6.992;2024-02-23T09:40:53;4.25;;;1.08;;
19842;SDS011;10082;51.038;6.992;2024-02-23T09:43:21;1.00;;;0.63;;
19842;SDS011;10082;51.038;6.992;2024-02-23T09:45:50;1.63;;;0.63;;
19842;SDS011;10082;51.038;6.992;2024-02-23T09:48:17;1.13;;;0.75;;
19842;SDS011;10082;51.038;6.992;2024-02-23T09:50:45;2.20;;;1.52;;
19842;SDS011;10082;51.038;6.992;2024-02-23T09:53:16;2.70;;;1.23;;
19842;SDS011;10082;51.038;6.992;2024-02-23T09:55:45;3.35;;;1.50;;
19842;SDS011;10082;51.038;6.992;2024-02-23T09:58:16;4.47;;;1.77;;
19842;SDS011;10082;51.038;6.992;2024-02-23T10:00:44;4.38;;;2.15;;
19842;SDS011;10082;51.038;6.992;2024-02-23T10:03:11;1.55;;;0.98;;
19842;SDS011;10082;51.038;6.992;2024-02-23T10:05:38;3.20;;;1.95;;
19842;SDS011;10082;51.038;6.992;2024-02-23T10:08:06;2.20;;;1.10;;
19842;SDS011;10082;51.038;6.992;2024-02-23T10:10:34;2.33;;;1.27;;
19842;SDS011;10082;51.038;6.992;2024-02-23T10:13:03;3.25;;;1.50;;
19842;SDS011;10082;51.038;6.992;2024-02-23T10:15:31;4.07;;;1.88;;
19842;SDS011;10082;51.038;6.992;2024-02-23T10:17:58;3.67;;;1.48;;
19842;SDS011;10082;51.038;6.992;2024-02-23T10:20:25;4.35;;;1.50;;
19842;SDS011;10082;51.038;6.992;2024-02-23T10:22:52;3.97;;;1.67;;
19842;SDS011;10082;51.038;6.992;2024-02-23T10:25:19;2.15;;;1.00;;
19842;SDS011;10082;51.038;6.992;2024-02-23T10:27:48;2.95;;;1.70;;
19842;SDS011;10082;51.038;6.992;2024-02-23T10:30:15;4.72;;;1.85;;
19842;SDS011;10082;51.038;6.992;2024-02-23T10:32:43;2.28;;;1.52;;
19842;SDS011;10082;51.038;6.992;2024-02-23T10:35:11;3.60;;;1.40;;
19842;SDS011;10082;51.038;6.992;2024-02-23T10:37:42;3.78;;;1.52;;
19842;SDS011;10082;51.038;6.992;2024-02-23T10:40:11;3.10;;;1.63;;
19842;SDS011;10082;51.038;6.992;2024-02-23T10:42:39;3.30;;;1.80;;
19842;SDS011;10082;51.038;6.992;2024-02-23T10:45:09;4.32;;;1.85;;
19842;SDS011;10082;51.038;6.992;2024-02-23T10:47:36;3.45;;;1.63;;
19842;SDS011;10082;51.038;6.992;2024-02-23T10:50:04;2.67;;;1.50;;
19842;SDS011;10082;51.038;6.992;2024-02-23T10:52:33;2.53;;;1.52;;
19842;SDS011;10082;51.038;6.992;2024-02-23T10:55:02;2.20;;;1.10;;
19842;SDS011;10082;51.038;6.992;2024-02-23T10:57:30;1.38;;;0.70;;
19842;SDS011;10082;51.038;6.992;2024-02-23T10:59:58;2.17;;;0.82;;
19842;SDS011;10082;51.038;6.992;2024-02-23T11:02:27;1.52;;;0.90;;
19842;SDS011;10082;51.038;6.992;2024-02-23T11:04:58;2.38;;;1.13;;
19842;SDS011;10082;51.038;6.992;2024-02-23T11:07:29;3.22;;;1.15;;
19842;SDS011;10082;51.038;6.992;2024-02-23T11:09:58;2.80;;;1.33;;
19842;SDS011;10082;51.038;6.992;2024-02-23T11:12:26;1.98;;;1.00;;
19842;SDS011;10082;51.038;6.992;2024-02-23T11:14:59;3.22;;;1.40;;
19842;SDS011;10082;51.038;6.992;2024-02-23T11:17:28;3.53;;;1.95;;
19842;SDS011;10082;51.038;6.992;2024-02-23T11:19:57;4.35;;;1.65;;
19842;SDS011;10082;51.038;6.992;2024-02-23T11:22:25;3.75;;;2.03;;
19842;SDS011;10082;51.038;6.992;2024-02-23T11:24:52;2.85;;;1.25;;
19842;SDS011;10082;51.038;6.992;2024-02-23T11:27:20;1.60;;;0.90;;
19842;SDS011;10082;51.038;6.992;2024-02-23T11:29:58;3.83;;;1.30;;
19842;SDS011;10082;51.038;6.992;2024-02-23T11:32:36;4.50;;;1.98;;
19842;SDS011;10082;51.038;6.992;2024-02-23T11:35:06;4.78;;;1.95;;
19842;SDS011;10082;51.038;6.992;2024-02-23T11:37:43;2.60;;;1.05;;
19842;SDS011;10082;51.038;6.992;2024-02-23T11:40:12;2.17;;;0.98;;
19842;SDS011;10082;51.038;6.992;2024-02-23T11:42:39;2.08;;;1.00;;
19842;SDS011;10082;51.038;6.992;2024-02-23T11:45:09;4.40;;;1.50;;
19842;SDS011;10082;51.038;6.992;2024-02-23T11:47:38;4.28;;;2.05;;
19842;SDS011;10082;51.038;6.992;2024-02-23T11:50:07;2.90;;;1.63;;
19842;SDS011;10082;51.038;6.992;2024-02-23T11:52:35;4.03;;;1.80;;
19842;SDS011;10082;51.038;6.992;2024-02-23T11:55:03;4.53;;;1.30;;
19842;SDS011;10082;51.038;6.992;2024-02-23T11:57:31;3.13;;;1.23;;
19842;SDS011;10082;51.038;6.992;2024-02-23T12:00:00;3.85;;;1.80;;
19842;SDS011;10082;51.038;6.992;2024-02-23T12:02:30;3.20;;;1.88;;
19842;SDS011;10082;51.038;6.992;2024-02-23T12:05:02;4.15;;;1.70;;
19842;SDS011;10082;51.038;6.992;2024-02-23T12:07:34;6.82;;;2.25;;
19842;SDS011;10082;51.038;6.992;2024-02-23T12:10:02;2.47;;;0.80;;
19842;SDS011;10082;51.038;6.992;2024-02-23T12:12:31;3.60;;;1.40;;
19842;SDS011;10082;51.038;6.992;2024-02-23T12:14:58;4.00;;;1.10;;
19842;SDS011;10082;51.038;6.992;2024-02-23T12:17:26;4.50;;;1.90;;
19842;SDS011;10082;51.038;6.992;2024-02-23T12:19:57;3.83;;;1.60;;
19842;SDS011;10082;51.038;6.992;2024-02-23T12:22:27;4.80;;;2.28;;
19842;SDS011;10082;51.038;6.992;2024-02-23T12:24:56;4.10;;;2.40;;
19842;SDS011;10082;51.038;6.992;2024-02-23T12:27:24;4.18;;;2.15;;
19842;SDS011;10082;51.038;6.992;2024-02-23T12:29:54;6.00;;;2.55;;
19842;SDS011;10082;51.038;6.992;2024-02-23T12:32:21;3.97;;;1.83;;
19842;SDS011;10082;51.038;6.992;2024-02-23T12:34:49;3.15;;;1.35;;
19842;SDS011;10082;51.038;6.992;2024-02-23T12:37:17;4.75;;;2.20;;
19842;SDS011;10082;51.038;6.992;2024-02-23T12:39:47;4.40;;;1.80;;
19842;SDS011;10082;51.038;6.992;2024-02-23T12:42:14;3.65;;;1.40;;
19842;SDS011;10082;51.038;6.992;2024-02-23T12:44:41;3.72;;;2.05;;
19842;SDS011;10082;51.038;6.992;2024-02-23T12:47:13;3.58;;;2.45;;
19842;SDS011;10082;51.038;6.992;2024-02-23T12:49:40;4.07;;;1.38;;
19842;SDS011;10082;51.038;6.992;2024-02-23T12:52:07;3.58;;;1.58;;
19842;SDS011;10082;51.038;6.992;2024-02-23T12:54:34;3.20;;;1.60;;
19842;SDS011;10082;51.038;6.992;2024-02-23T12:57:03;3.80;;;1.40;;
19842;SDS011;10082;51.038;6.992;2024-02-23T12:59:30;4.15;;;1.20;;
19842;SDS011;10082;51.038;6.992;2024-02-23T13:01:57;5.50;;;1.80;;
19842;SDS011;10082;51.038;6.992;2024-02-23T13:04:24;5.63;;;1.92;;
19842;SDS011;10082;51.038;6.992;2024-02-23T13:06:51;2.75;;;1.30;;
19842;SDS011;10082;51.038;6.992;2024-02-23T13:09:25;3.95;;;1.92;;
19842;SDS011;10082;51.038;6.992;2024-02-23T13:11:53;3.03;;;1.58;;
19842;SDS011;10082;51.038;6.992;2024-02-23T13:14:21;4.65;;;2.17;;
19842;SDS011;10082;51.038;6.992;2024-02-23T13:16:49;4.97;;;1.73;;
19842;SDS011;10082;51.038;6.992;2024-02-23T13:19:16;3.35;;;1.65;;
19842;SDS011;10082;51.038;6.992;2024-02-23T13:21:43;2.85;;;1.70;;
19842;SDS011;10082;51.038;6.992;2024-02-23T13:24:10;2.78;;;1.58;;
19842;SDS011;10082;51.038;6.992;2024-02-23T13:26:38;3.45;;;1.40;;
19842;SDS011;10082;51.038;6.992;2024-02-23T13:29:05;4.90;;;1.65;;
19842;SDS011;10082;51.038;6.992;2024-02-23T13:31:36;5.40;;;2.22;;
19842;SDS011;10082;51.038;6.992;2024-02-23T13:34:05;5.50;;;1.52;;
19842;SDS011;10082;51.038;6.992;2024-02-23T13:36:32;3.70;;;1.35;;
19842;SDS011;10082;51.038;6.992;2024-02-23T13:39:00;3.17;;;1.00;;
19842;SDS011;10082;51.038;6.992;2024-02-23T13:41:34;2.50;;;0.90;;
19842;SDS011;10082;51.038;6.992;2024-02-23T13:44:01;0.80;;;0.60;;
19842;SDS011;10082;51.038;6.992;2024-02-23T13:46:29;3.85;;;1.52;;
19842;SDS011;10082;51.038;6.992;2024-02-23T13:49:03;3.35;;;1.40;;
19842;SDS011;10082;51.038;6.992;2024-02-23T13:51:32;4.00;;;2.05;;
19842;SDS011;10082;51.038;6.992;2024-02-23T13:53:59;3.90;;;1.30;;
19842;SDS011;10082;51.038;6.992;2024-02-23T13:56:28;3.30;;;1.63;;
19842;SDS011;10082;51.038;6.992;2024-02-23T13:58:55;1.42;;;0.80;;
19842;SDS011;10082;51.038;6.992;2024-02-23T14:01:22;2.33;;;0.90;;
19842;SDS011;10082;51.038;6.992;2024-02-23T14:03:50;4.25;;;1.38;;
19842;SDS011;10082;51.038;6.992;2024-02-23T14:06:19;3.05;;;1.33;;
19842;SDS011;10082;51.038;6.992;2024-02-23T14:08:46;1.77;;;0.90;;
19842;SDS011;10082;51.038;6.992;2024-02-23T14:11:13;1.65;;;0.88;;
19842;SDS011;10082;51.038;6.992;2024-02-23T14:13:43;2.88;;;1.08;;
19842;SDS011;10082;51.038;6.992;2024-02-23T14:16:11;2.97;;;1.85;;
19842;SDS011;10082;51.038;6.992;2024-02-23T14:18:38;4.03;;;1.73;;
19842;SDS011;10082;51.038;6.992;2024-02-23T14:21:07;2.13;;;0.95;;
19842;SDS011;10082;51.038;6.992;2024-02-23T14:23:37;1.85;;;1.08;;
19842;SDS011;10082;51.038;6.992;2024-02-23T14:26:04;1.38;;;0.60;;
19842;SDS011;10082;51.038;6.992;2024-02-23T14:28:31;3.53;;;1.42;;
19842;SDS011;10082;51.038;6.992;2024-02-23T14:30:58;3.25;;;0.90;;
19842;SDS011;10082;51.038;6.992;2024-02-23T14:33:25;1.80;;;0.73;;
19842;SDS011;10082;51.038;6.992;2024-02-23T14:38:42;2.63;;;0.70;;
19842;SDS011;10082;51.038;6.992;2024-02-23T14:41:09;2.08;;;1.00;;
19842;SDS011;10082;51.038;6.992;2024-02-23T14:43:37;4.85;;;2.28;;
19842;SDS011;10082;51.038;6.992;2024-02-23T14:46:04;3.53;;;1.98;;
19842;SDS011;10082;51.038;6.992;2024-02-23T14:48:31;4.50;;;1.90;;
19842;SDS011;10082;51.038;6.992;2024-02-23T14:50:58;4.57;;;1.40;;
19842;SDS011;10082;51.038;6.992;2024-02-23T14:53:28;3.55;;;1.10;;
19842;SDS011;10082;51.038;6.992;2024-02-23T14:55:57;2.55;;;1.02;;
19842;SDS011;10082;51.038;6.992;2024-02-23T14:58:24;1.90;;;0.80;;
19842;SDS011;10082;51.038;6.992;2024-02-23T15:00:51;4.43;;;1.70;;